createdAt,value
2018-12-29T00:01:49.700Z,18.10
2018-12-29T00:06:08.537Z,18.90
2018-12-29T00:10:27.033Z,18.80
2018-12-29T00:14:45.339Z,21.93
2018-12-29T00:19:04.583Z,16.30
2018-12-29T00:23:22.848Z,21.20
2018-12-29T00:27:41.345Z,15.70
2018-12-29T00:32:01.308Z,18.63
2018-12-29T00:36:19.458Z,18.90
2018-12-29T00:40:37.614Z,20.17
2018-12-29T00:45:02.239Z,17.80
2018-12-29T00:49:15.578Z,17.73
2018-12-29T00:53:34.090Z,17.13
2018-12-29T00:57:52.289Z,20.17
2018-12-29T01:02:10.539Z,20.00
2018-12-29T01:06:28.921Z,15.13
2018-12-29T01:10:47.198Z,18.20
2018-12-29T01:15:09.822Z,22.13
2018-12-29T01:19:25.207Z,17.60
2018-12-29T01:23:43.420Z,17.90
2018-12-29T01:28:01.543Z,17.23
2018-12-29T01:32:19.678Z,19.73
2018-12-29T01:36:37.784Z,21.33
2018-12-29T01:40:55.996Z,24.03
2018-12-29T01:45:17.546Z,22.57
2018-12-29T01:49:34.394Z,19.27
2018-12-29T01:53:52.538Z,21.90
2018-12-29T01:58:12.589Z,15.77
2018-12-29T02:02:30.723Z,20.53
2018-12-29T02:06:49.020Z,18.10
2018-12-29T02:11:07.197Z,15.43
2018-12-29T02:15:25.485Z,20.80
2018-12-29T02:19:43.696Z,19.83
2018-12-29T02:24:02.170Z,22.17
2018-12-29T02:28:20.544Z,18.00
2018-12-29T02:32:39.024Z,18.97
2018-12-29T02:36:57.203Z,14.90
2018-12-29T02:41:15.326Z,19.00
2018-12-29T02:45:33.834Z,23.87
2018-12-29T02:49:52.134Z,21.17
2018-12-29T02:54:10.413Z,19.87
2018-12-29T02:58:28.601Z,19.20
2018-12-29T03:02:47.534Z,21.00
2018-12-29T03:07:05.731Z,17.80
2018-12-29T03:11:23.981Z,19.80
2018-12-29T03:15:42.090Z,19.53
2018-12-29T03:20:00.397Z,19.70
2018-12-29T03:24:18.565Z,16.47
2018-12-29T03:28:36.826Z,14.70
2018-12-29T03:32:55.042Z,19.97
2018-12-29T03:37:13.841Z,22.37
2018-12-29T03:41:32.125Z,18.53
2018-12-29T03:45:51.231Z,17.27
2018-12-29T03:50:09.525Z,14.87
2018-12-29T03:54:27.797Z,13.30
2018-12-29T03:58:45.915Z,16.60
2018-12-29T04:03:04.209Z,15.53
2018-12-29T04:07:22.650Z,12.30
2018-12-29T04:11:40.941Z,15.13
2018-12-29T04:15:59.103Z,16.23
2018-12-29T04:20:17.281Z,12.63
2018-12-29T04:24:35.837Z,17.47
2018-12-29T04:28:54.225Z,14.13
2018-12-29T04:33:12.296Z,12.87
2018-12-29T04:37:30.334Z,16.00
2018-12-29T04:41:48.482Z,16.50
2018-12-29T04:46:06.628Z,15.67
2018-12-29T04:50:24.840Z,14.13
2018-12-29T04:54:43.291Z,17.07
2018-12-29T04:59:01.620Z,17.13
2018-12-29T05:03:19.826Z,16.80
2018-12-29T05:07:37.944Z,17.40
2018-12-29T05:11:56.435Z,18.60
2018-12-29T05:16:14.629Z,18.50
2018-12-29T05:20:32.871Z,15.20
2018-12-29T05:24:51.052Z,14.93
2018-12-29T05:29:09.242Z,17.07
2018-12-29T05:33:27.805Z,15.40
2018-12-29T05:37:46.768Z,15.40
2018-12-29T05:42:04.958Z,17.20
2018-12-29T05:46:23.115Z,19.27
2018-12-29T05:50:41.962Z,14.17
2018-12-29T05:55:00.492Z,17.00
2018-12-29T05:59:18.727Z,16.90
2018-12-29T06:03:37.136Z,15.07
2018-12-29T06:07:55.228Z,15.20
2018-12-29T06:12:15.025Z,9.30
2018-12-29T06:16:33.211Z,17.30
2018-12-29T06:20:51.702Z,19.27
2018-12-29T06:25:09.891Z,15.70
2018-12-29T06:29:28.590Z,17.87
2018-12-29T06:33:46.816Z,16.73
2018-12-29T06:38:05.092Z,16.10
2018-12-29T06:42:23.279Z,15.40
2018-12-29T06:46:41.849Z,14.77
2018-12-29T06:51:00.021Z,12.47
2018-12-29T06:55:18.484Z,15.37
2018-12-29T06:59:36.853Z,16.50
2018-12-29T07:03:55.378Z,17.00
2018-12-29T07:08:13.596Z,11.80
2018-12-29T07:12:31.848Z,13.60
2018-12-29T07:16:49.984Z,13.10
2018-12-29T07:21:08.616Z,15.33
2018-12-29T07:25:26.921Z,11.00
2018-12-29T07:29:45.075Z,13.53
2018-12-29T07:34:03.578Z,14.30
2018-12-29T07:38:21.805Z,13.17
2018-12-29T07:42:40.046Z,13.53
2018-12-29T07:46:58.182Z,12.90
2018-12-29T07:51:16.767Z,13.90
2018-12-29T07:55:35.368Z,16.20
2018-12-29T07:59:54.230Z,11.90
2018-12-29T08:04:12.347Z,14.90
2018-12-29T08:08:30.745Z,13.83
2018-12-29T08:12:49.010Z,15.17
2018-12-29T08:17:09.195Z,14.80
2018-12-29T08:21:27.664Z,15.40
2018-12-29T08:25:46.208Z,14.70
2018-12-29T08:30:04.440Z,14.80
2018-12-29T08:34:23.801Z,13.97
2018-12-29T08:38:42.283Z,16.33
2018-12-29T08:43:00.413Z,13.60
2018-12-29T08:47:19.075Z,14.97
2018-12-29T08:51:37.255Z,16.33
2018-12-29T08:55:55.821Z,14.57
2018-12-29T09:00:14.033Z,14.93
2018-12-29T09:04:32.700Z,16.70
2018-12-29T09:08:50.945Z,12.90
2018-12-29T09:13:09.224Z,14.83
2018-12-29T09:17:27.501Z,19.00
2018-12-29T09:21:45.847Z,17.47
2018-12-29T09:26:05.902Z,17.20
2018-12-29T09:30:24.296Z,14.03
2018-12-29T09:34:42.457Z,17.93
2018-12-29T09:39:00.958Z,12.80
2018-12-29T09:43:19.754Z,13.10
2018-12-29T09:47:38.205Z,11.37
2018-12-29T09:51:57.333Z,10.00
2018-12-29T09:56:15.843Z,9.53
2018-12-29T10:00:34.407Z,10.83
2018-12-29T10:04:53.125Z,14.17
2018-12-29T10:09:11.552Z,13.47
2018-12-29T10:13:29.614Z,15.53
2018-12-29T10:17:47.788Z,11.37
2018-12-29T10:22:06.385Z,15.33
2018-12-29T10:26:24.627Z,11.90
2018-12-29T10:30:44.540Z,13.90
2018-12-29T10:35:03.107Z,13.13
2018-12-29T10:39:21.415Z,12.53
2018-12-29T10:43:39.589Z,12.53
2018-12-29T10:48:01.158Z,13.83
2018-12-29T10:52:19.510Z,8.80
2018-12-29T10:56:38.125Z,11.80
2018-12-29T11:00:58.576Z,10.90
2018-12-29T11:05:17.140Z,11.90
2018-12-29T11:09:35.859Z,13.67
2018-12-29T11:13:54.640Z,11.57
2018-12-29T11:18:13.613Z,12.30
2018-12-29T11:22:32.657Z,16.60
2018-12-29T11:26:52.219Z,13.50
2018-12-29T11:31:10.640Z,9.93
2018-12-29T11:35:29.323Z,13.30
2018-12-29T11:39:47.702Z,14.83
2018-12-29T11:44:06.050Z,13.50
2018-12-29T11:48:24.709Z,14.40
2018-12-29T11:52:43.273Z,11.23
2018-12-29T11:57:01.754Z,12.63
2018-12-29T12:01:20.398Z,11.67
2018-12-29T12:05:38.637Z,9.70
2018-12-29T12:09:57.027Z,10.60
2018-12-29T12:14:15.412Z,10.30
2018-12-29T12:18:34.849Z,10.70
2018-12-29T12:22:53.112Z,9.73
2018-12-29T12:27:12.085Z,9.83
2018-12-29T12:31:31.013Z,10.07
2018-12-29T12:35:49.644Z,11.03
2018-12-29T12:40:08.256Z,10.53
2018-12-29T12:44:26.612Z,10.20
2018-12-29T12:48:45.154Z,9.57
2018-12-29T12:53:03.417Z,12.03
2018-12-29T12:57:22.124Z,10.63
2018-12-29T13:01:41.117Z,10.83
2018-12-29T13:05:59.386Z,12.07
2018-12-29T13:10:18.307Z,11.07
2018-12-29T13:14:36.485Z,9.00
2018-12-29T13:18:56.013Z,12.73
2018-12-29T13:23:15.462Z,10.90
2018-12-29T13:27:33.849Z,8.70
2018-12-29T13:31:53.184Z,10.40
2018-12-29T13:36:11.462Z,10.93
2018-12-29T13:40:29.729Z,11.40
2018-12-29T13:44:48.235Z,9.33
2018-12-29T13:49:06.295Z,8.60
2018-12-29T13:53:24.839Z,9.70
2018-12-29T13:57:43.750Z,8.40
2018-12-29T14:02:02.001Z,7.97
2018-12-29T14:06:21.001Z,10.00
2018-12-29T14:10:39.569Z,9.33
2018-12-29T14:14:57.799Z,10.57
2018-12-29T14:19:16.103Z,9.70
2018-12-29T14:23:34.133Z,7.67
2018-12-29T14:27:52.652Z,8.60
2018-12-29T14:32:10.865Z,9.93
2018-12-29T14:36:29.486Z,8.30
2018-12-29T14:40:47.772Z,7.27
2018-12-29T14:45:05.997Z,9.30
2018-12-29T14:49:26.100Z,7.90
2018-12-29T14:53:44.400Z,8.17
2018-12-29T14:58:03.163Z,9.60
2018-12-29T15:02:21.398Z,9.37
2018-12-29T15:06:39.593Z,8.13
2018-12-29T15:10:58.073Z,8.23
2018-12-29T15:15:18.095Z,9.47
2018-12-29T15:19:38.111Z,9.83
2018-12-29T15:23:56.374Z,7.97
2018-12-29T15:28:15.053Z,10.23
2018-12-29T15:32:33.734Z,10.60
2018-12-29T15:36:53.874Z,9.10
2018-12-29T15:41:12.396Z,7.63
2018-12-29T15:45:30.723Z,6.97
2018-12-29T15:49:50.034Z,8.80
2018-12-29T15:54:08.049Z,7.87
2018-12-29T15:58:26.846Z,5.50
2018-12-29T16:02:45.213Z,7.67
2018-12-29T16:07:03.479Z,5.97
2018-12-29T16:11:26.272Z,8.87
2018-12-29T16:15:43.995Z,7.37
2018-12-29T16:20:02.344Z,7.27
2018-12-29T16:24:20.591Z,10.07
2018-12-29T16:28:41.009Z,11.53
2018-12-29T16:33:00.841Z,14.80
2018-12-29T16:37:20.272Z,9.03
2018-12-29T16:41:38.946Z,8.43
2018-12-29T16:45:57.615Z,9.70
2018-12-29T16:50:16.031Z,9.83
2018-12-29T16:54:34.632Z,13.93
2018-12-29T16:58:53.276Z,10.50
2018-12-29T17:03:11.544Z,11.67
2018-12-29T17:07:30.805Z,10.90
2018-12-29T17:11:52.535Z,11.17
2018-12-29T17:16:09.110Z,14.03
2018-12-29T17:20:27.675Z,14.70
2018-12-29T17:24:45.875Z,10.17
2018-12-29T17:29:04.081Z,10.73
2018-12-29T17:33:25.180Z,11.30
2018-12-29T17:37:44.476Z,14.67
2018-12-29T17:42:04.517Z,15.50
2018-12-29T17:46:22.695Z,14.17
2018-12-29T17:50:40.941Z,14.50
2018-12-29T17:55:01.707Z,16.10
2018-12-29T17:59:21.219Z,16.27
2018-12-29T18:03:41.447Z,15.43
2018-12-29T18:08:00.343Z,12.73
2018-12-29T18:12:18.902Z,12.57
2018-12-29T18:16:37.982Z,10.20
2018-12-29T18:20:56.766Z,12.83
2018-12-29T18:25:17.484Z,9.40
2018-12-29T18:29:37.396Z,9.53
2018-12-29T18:33:57.963Z,9.50
2018-12-29T18:38:17.916Z,10.40
2018-12-29T18:42:36.492Z,8.27
2018-12-29T18:46:59.200Z,8.67
2018-12-29T18:51:18.935Z,6.17
2018-12-29T18:55:37.636Z,11.10
2018-12-29T18:59:56.021Z,10.33
2018-12-29T19:04:18.099Z,8.00
2018-12-29T19:08:36.983Z,5.57
2018-12-29T19:12:56.232Z,6.10
2018-12-29T19:17:16.637Z,5.87
2018-12-29T19:21:37.300Z,4.60
2018-12-29T19:25:55.883Z,4.50
2018-12-29T19:30:18.135Z,4.23
2018-12-29T19:34:36.640Z,5.57
2018-12-29T19:38:55.567Z,6.17
2018-12-29T19:43:14.071Z,6.23
2018-12-29T19:47:32.490Z,6.37
2018-12-29T19:51:51.470Z,4.70
2018-12-29T19:56:11.923Z,6.37
2018-12-29T20:00:31.821Z,3.87
2018-12-29T20:04:50.042Z,4.77
2018-12-29T20:09:09.371Z,3.93
2018-12-29T20:13:27.583Z,3.10
2018-12-29T20:17:46.132Z,3.40
2018-12-29T20:22:04.799Z,3.10
2018-12-29T20:26:22.947Z,3.37
2018-12-29T20:30:41.885Z,5.30
2018-12-29T20:35:00.853Z,5.33
2018-12-29T20:39:18.983Z,6.37
2018-12-29T20:43:37.222Z,7.03
2018-12-29T20:47:57.053Z,7.20
2018-12-29T20:52:18.202Z,6.50
2018-12-29T20:56:38.429Z,6.60
2018-12-29T21:00:58.527Z,7.60
2018-12-29T21:05:19.099Z,5.70
2018-12-29T21:09:39.260Z,7.70
2018-12-29T21:13:58.925Z,6.70
2018-12-29T21:18:17.951Z,8.20
2018-12-29T21:22:37.384Z,5.70
2018-12-29T21:26:57.427Z,9.27
2018-12-29T21:31:17.090Z,9.30
2018-12-29T21:35:38.137Z,9.70
2018-12-29T21:39:59.643Z,7.83
2018-12-29T21:44:19.673Z,9.07
2018-12-29T21:48:39.680Z,7.40
2018-12-29T21:52:58.820Z,7.23
2018-12-29T21:57:19.322Z,9.93
2018-12-29T22:01:39.326Z,9.90
2018-12-29T22:05:59.709Z,9.53
2018-12-29T22:10:19.214Z,6.00
2018-12-29T22:14:39.464Z,7.20
2018-12-29T22:18:57.693Z,7.67
2018-12-29T22:23:16.259Z,7.50
2018-12-29T22:27:34.884Z,6.10
2018-12-29T22:31:53.486Z,5.63
2018-12-29T22:36:11.953Z,5.67
2018-12-29T22:40:30.233Z,6.10
2018-12-29T22:44:48.744Z,6.27
2018-12-29T22:49:06.901Z,5.07
2018-12-29T22:53:25.014Z,4.30
2018-12-29T22:57:43.486Z,4.43
2018-12-29T23:02:02.450Z,4.33
2018-12-29T23:06:20.542Z,3.40
2018-12-29T23:10:38.682Z,3.97
2018-12-29T23:14:57.394Z,2.90
2018-12-29T23:19:15.641Z,3.10
2018-12-29T23:23:34.534Z,3.73
2018-12-29T23:27:52.676Z,2.30
2018-12-29T23:32:10.984Z,1.90
2018-12-29T23:36:29.854Z,1.40
2018-12-29T23:40:48.496Z,1.60
2018-12-29T23:45:07.308Z,1.70
2018-12-29T23:49:26.359Z,1.20
2018-12-29T23:53:45.236Z,2.77
2018-12-29T23:58:04.163Z,2.70
